createdAt,value
2022-11-03T00:01:03.820Z,0.40
2022-11-03T00:03:31.331Z,0.40
2022-11-03T00:06:07.576Z,0.30
2022-11-03T00:08:36.311Z,0.30
2022-11-03T00:11:08.075Z,0.40
2022-11-03T00:13:37.578Z,0.35
2022-11-03T00:16:05.555Z,0.40
2022-11-03T00:18:33.083Z,0.50
2022-11-03T00:21:01.235Z,0.40
2022-11-03T00:23:33.781Z,0.30
2022-11-03T00:26:05.197Z,0.40
2022-11-03T00:28:33.703Z,0.40
2022-11-03T00:31:03.137Z,0.30
2022-11-03T00:33:32.233Z,0.30
2022-11-03T00:36:00.212Z,0.40
2022-11-03T00:38:27.685Z,0.38
2022-11-03T00:40:55.713Z,0.30
2022-11-03T00:43:23.441Z,0.40
2022-11-03T00:45:51.201Z,0.30
2022-11-03T00:48:32.496Z,0.40
2022-11-03T00:51:03.190Z,0.30
2022-11-03T00:53:31.131Z,0.38
2022-11-03T00:55:58.596Z,0.30
2022-11-03T00:58:26.142Z,0.40
2022-11-03T01:00:59.535Z,0.30
2022-11-03T01:03:28.435Z,0.40
2022-11-03T01:06:13.698Z,0.30
2022-11-03T01:08:41.191Z,0.30
2022-11-03T01:11:26.827Z,0.40
2022-11-03T01:13:54.299Z,0.50
2022-11-03T01:16:22.222Z,0.40
2022-11-03T01:18:51.268Z,0.30
2022-11-03T01:21:19.201Z,0.30
2022-11-03T01:23:46.694Z,0.38
2022-11-03T01:26:14.539Z,0.30
2022-11-03T01:29:18.624Z,0.30
2022-11-03T01:32:05.203Z,0.30
2022-11-03T01:34:34.235Z,0.40
2022-11-03T01:37:01.893Z,0.40
2022-11-03T01:39:29.558Z,0.30
2022-11-03T01:41:57.471Z,0.30
2022-11-03T01:44:26.825Z,0.30
2022-11-03T01:46:55.717Z,0.30
2022-11-03T01:49:26.702Z,0.30
2022-11-03T01:51:58.195Z,0.30
2022-11-03T01:54:28.361Z,0.30
2022-11-03T01:56:56.601Z,0.30
2022-11-03T01:59:25.115Z,0.30
2022-11-03T02:01:58.782Z,0.40
2022-11-03T02:04:28.577Z,0.30
2022-11-03T02:06:59.555Z,0.30
2022-11-03T02:09:27.044Z,0.30
2022-11-03T02:12:07.798Z,0.30
2022-11-03T02:14:36.753Z,0.30
2022-11-03T02:17:07.062Z,0.30
2022-11-03T02:19:36.116Z,0.30
2022-11-03T02:22:09.875Z,0.30
2022-11-03T02:24:42.404Z,0.40
2022-11-03T02:27:11.224Z,0.40
2022-11-03T02:29:38.654Z,0.30
2022-11-03T02:32:08.585Z,0.30
2022-11-03T02:34:40.524Z,0.40
2022-11-03T02:37:11.192Z,0.32
2022-11-03T02:39:41.664Z,0.50
2022-11-03T02:42:09.940Z,0.38
2022-11-03T02:44:39.708Z,0.30
2022-11-03T02:47:08.942Z,0.40
2022-11-03T02:49:39.138Z,0.30
2022-11-03T02:52:07.181Z,0.30
2022-11-03T02:54:36.058Z,0.30
2022-11-03T02:57:06.864Z,0.30
2022-11-03T02:59:37.622Z,0.30
2022-11-03T03:02:09.674Z,0.30
2022-11-03T03:04:39.690Z,0.40
2022-11-03T03:07:09.066Z,0.30
2022-11-03T03:09:40.241Z,0.30
2022-11-03T03:12:09.767Z,0.30
2022-11-03T03:14:38.706Z,0.30
2022-11-03T03:17:10.232Z,0.40
2022-11-03T03:19:44.463Z,0.32
2022-11-03T03:22:15.435Z,0.30
2022-11-03T03:24:47.203Z,0.40
2022-11-03T03:27:14.927Z,0.40
2022-11-03T03:29:44.366Z,0.30
2022-11-03T03:32:14.191Z,0.40
2022-11-03T03:34:42.726Z,0.40
2022-11-03T03:37:11.687Z,0.32
2022-11-03T03:39:40.508Z,0.38
2022-11-03T03:42:09.456Z,0.40
2022-11-03T03:44:38.749Z,0.30
2022-11-03T03:47:09.070Z,0.30
2022-11-03T03:49:37.918Z,0.30
2022-11-03T03:52:05.637Z,0.40
2022-11-03T03:54:33.092Z,0.40
2022-11-03T03:57:02.261Z,0.40
2022-11-03T03:59:29.804Z,0.40
2022-11-03T04:01:57.615Z,0.40
2022-11-03T04:04:25.168Z,0.40
2022-11-03T04:07:14.024Z,0.40
2022-11-03T04:09:41.509Z,0.40
2022-11-03T04:12:26.719Z,0.40
2022-11-03T04:15:12.169Z,0.40
2022-11-03T04:17:58.511Z,0.40
2022-11-03T04:20:44.230Z,0.40
2022-11-03T04:23:13.005Z,0.35
2022-11-03T04:25:40.515Z,0.38
2022-11-03T04:28:09.991Z,0.30
2022-11-03T04:30:37.461Z,0.40
2022-11-03T04:33:06.214Z,0.30
2022-11-03T04:35:33.825Z,0.35
2022-11-03T04:38:02.388Z,0.30
2022-11-03T04:40:31.271Z,0.40
2022-11-03T04:42:58.775Z,0.50
2022-11-03T04:45:29.023Z,0.30
2022-11-03T04:47:56.480Z,0.40
2022-11-03T04:50:24.412Z,0.40
2022-11-03T04:52:53.453Z,0.32
2022-11-03T04:55:21.244Z,0.50
2022-11-03T04:57:55.227Z,0.50
2022-11-03T05:00:22.768Z,0.70
2022-11-03T05:02:54.803Z,0.35
2022-11-03T05:05:24.709Z,0.40
2022-11-03T05:07:53.028Z,0.40
2022-11-03T05:10:21.851Z,0.60
2022-11-03T05:12:51.334Z,0.40
2022-11-03T05:15:29.060Z,0.40
2022-11-03T05:17:57.163Z,0.40
2022-11-03T05:20:30.721Z,0.50
2022-11-03T05:23:06.448Z,0.52
2022-11-03T05:25:39.223Z,0.40
2022-11-03T05:28:15.336Z,0.40
2022-11-03T05:30:42.866Z,0.50
2022-11-03T05:33:16.639Z,0.30
2022-11-03T05:35:44.097Z,0.40
2022-11-03T05:38:13.559Z,0.40
2022-11-03T05:40:41.634Z,0.40
2022-11-03T05:43:12.184Z,0.45
2022-11-03T05:45:41.409Z,0.47
2022-11-03T05:48:14.066Z,0.40
2022-11-03T05:50:42.343Z,0.50
2022-11-03T05:53:14.729Z,0.50
2022-11-03T05:55:43.308Z,0.40
2022-11-03T05:58:14.302Z,0.40
2022-11-03T06:00:48.299Z,0.40
2022-11-03T06:03:17.146Z,0.40
2022-11-03T06:05:44.668Z,0.60
2022-11-03T06:08:15.582Z,0.50
2022-11-03T06:10:46.438Z,0.60
2022-11-03T06:13:16.861Z,0.40
2022-11-03T06:15:47.270Z,0.40
2022-11-03T06:18:16.234Z,0.40
2022-11-03T06:20:45.306Z,0.57
2022-11-03T06:23:15.566Z,0.43
2022-11-03T06:25:43.407Z,0.40
2022-11-03T06:28:16.150Z,0.40
2022-11-03T06:30:43.741Z,0.40
2022-11-03T06:33:15.945Z,0.43
2022-11-03T06:35:44.116Z,0.40
2022-11-03T06:38:15.959Z,0.40
2022-11-03T06:40:43.374Z,0.50
2022-11-03T06:43:21.203Z,0.47
2022-11-03T06:45:52.615Z,0.47
2022-11-03T06:48:28.601Z,0.50
2022-11-03T06:50:57.040Z,0.35
2022-11-03T06:53:26.141Z,0.40
2022-11-03T06:55:53.753Z,0.38
2022-11-03T06:58:26.246Z,0.50
2022-11-03T07:00:57.718Z,0.40
2022-11-03T07:03:59.261Z,0.40
2022-11-03T07:06:28.066Z,0.30
2022-11-03T07:08:56.459Z,0.63
2022-11-03T07:11:24.947Z,0.30
2022-11-03T07:13:53.055Z,0.40
2022-11-03T07:16:25.491Z,0.50
2022-11-03T07:18:52.970Z,0.50
2022-11-03T07:21:31.826Z,0.30
2022-11-03T07:24:00.687Z,0.30
2022-11-03T07:26:28.255Z,0.40
2022-11-03T07:28:56.116Z,0.40
2022-11-03T07:31:24.874Z,0.40
2022-11-03T07:33:56.485Z,0.35
2022-11-03T07:36:24.917Z,0.30
2022-11-03T07:38:54.240Z,0.30
2022-11-03T07:41:23.095Z,0.30
2022-11-03T07:43:54.209Z,0.30
2022-11-03T07:46:22.412Z,0.30
2022-11-03T07:48:50.399Z,0.30
2022-11-03T07:51:21.011Z,0.20
2022-11-03T07:53:49.580Z,0.20
2022-11-03T07:56:19.794Z,0.20
2022-11-03T07:58:51.602Z,0.20
2022-11-03T08:01:28.892Z,0.20
2022-11-03T08:03:58.425Z,0.10
2022-11-03T08:06:25.856Z,0.10
2022-11-03T08:08:53.326Z,0.10
2022-11-03T08:11:26.045Z,0.10
2022-11-03T08:13:56.691Z,0.10
2022-11-03T08:16:24.114Z,0.10
2022-11-03T08:18:51.615Z,0.20
2022-11-03T08:21:19.090Z,0.13
2022-11-03T08:23:47.824Z,0.20
2022-11-03T08:26:15.497Z,0.20
2022-11-03T08:28:44.342Z,0.10
2022-11-03T08:31:13.119Z,0.10
2022-11-03T08:33:41.056Z,0.10
2022-11-03T08:36:09.502Z,0.10
2022-11-03T08:38:37.182Z,0.10
2022-11-03T08:41:05.070Z,0.15
2022-11-03T08:43:32.493Z,0.10
2022-11-03T08:46:08.120Z,0.10
2022-11-03T08:48:37.425Z,0.10
2022-11-03T08:51:04.949Z,0.20
2022-11-03T08:53:32.449Z,0.10
2022-11-03T08:55:59.876Z,0.20
2022-11-03T08:58:27.353Z,0.30
2022-11-03T09:00:54.820Z,0.15
2022-11-03T09:03:23.711Z,0.20
2022-11-03T09:05:51.474Z,0.22
2022-11-03T09:11:06.748Z,0.30
2022-11-03T09:13:34.182Z,0.20
2022-11-03T09:16:01.658Z,0.25
2022-11-03T09:18:30.513Z,0.30
2022-11-03T09:20:57.992Z,0.20
2022-11-03T09:23:25.499Z,0.30
2022-11-03T09:25:52.992Z,0.30
2022-11-03T09:28:20.447Z,0.20
2022-11-03T09:30:47.967Z,0.25
2022-11-03T09:33:15.504Z,0.30
2022-11-03T09:35:44.355Z,0.22
2022-11-03T09:38:11.838Z,0.30
2022-11-03T09:40:39.328Z,0.30
2022-11-03T09:43:07.148Z,0.30
2022-11-03T09:45:34.752Z,0.25
2022-11-03T09:48:02.235Z,0.20
2022-11-03T09:50:29.902Z,0.30
2022-11-03T09:52:59.157Z,0.32
2022-11-03T09:55:27.510Z,0.30
2022-11-03T09:57:56.237Z,0.38
2022-11-03T10:00:24.705Z,0.40
2022-11-03T10:02:52.310Z,0.30
2022-11-03T10:05:21.300Z,0.30
2022-11-03T10:07:48.789Z,0.45
2022-11-03T10:10:21.331Z,0.40
2022-11-03T10:12:49.874Z,0.40
2022-11-03T10:15:17.888Z,0.40
2022-11-03T10:17:45.719Z,0.30
2022-11-03T10:20:14.036Z,0.30
2022-11-03T10:22:41.774Z,0.30
2022-11-03T10:25:27.723Z,0.30
2022-11-03T10:28:14.547Z,0.40
2022-11-03T10:31:10.041Z,0.20
2022-11-03T10:33:38.147Z,0.25
2022-11-03T10:36:06.265Z,0.30
2022-11-03T10:38:34.368Z,0.28
2022-11-03T10:41:12.036Z,0.20
2022-11-03T10:43:41.546Z,0.22
2022-11-03T10:46:29.433Z,0.20
2022-11-03T10:51:34.322Z,0.40
2022-11-03T10:54:02.497Z,0.30
2022-11-03T10:56:30.102Z,0.30
2022-11-03T10:58:59.808Z,0.35
2022-11-03T11:01:27.360Z,0.30
2022-11-03T11:03:55.207Z,0.30
2022-11-03T11:06:25.240Z,0.30
2022-11-03T11:08:59.675Z,0.30
2022-11-03T11:11:27.765Z,0.30
2022-11-03T11:14:13.595Z,0.20
2022-11-03T11:16:52.678Z,0.20
2022-11-03T11:19:20.378Z,0.20
2022-11-03T11:21:58.064Z,0.30
2022-11-03T11:24:40.431Z,0.30
2022-11-03T11:27:41.137Z,0.30
2022-11-03T11:30:28.901Z,0.20
2022-11-03T11:33:01.389Z,0.30
2022-11-03T11:35:47.632Z,0.20
2022-11-03T11:38:33.929Z,0.30
2022-11-03T11:41:01.475Z,0.30
2022-11-03T11:43:28.976Z,0.30
2022-11-03T11:46:14.924Z,0.20
2022-11-03T11:48:43.794Z,0.30
2022-11-03T11:51:12.122Z,0.30
2022-11-03T11:53:40.650Z,0.30
2022-11-03T11:56:10.917Z,0.30
2022-11-03T11:58:42.639Z,0.30
2022-11-03T12:01:21.966Z,0.20
2022-11-03T12:03:51.789Z,0.30
2022-11-03T12:06:32.557Z,0.30
2022-11-03T12:09:04.999Z,0.30
2022-11-03T12:11:45.700Z,0.28
2022-11-03T12:14:24.193Z,0.30
2022-11-03T12:16:51.801Z,0.30
2022-11-03T12:19:40.797Z,0.20
2022-11-03T12:22:11.602Z,0.20
2022-11-03T12:24:49.858Z,0.30
2022-11-03T12:27:36.264Z,0.20
2022-11-03T12:30:05.064Z,0.20
2022-11-03T12:32:34.868Z,0.20
2022-11-03T12:35:04.884Z,0.20
2022-11-03T12:37:32.399Z,0.20
2022-11-03T12:40:00.008Z,0.20
2022-11-03T12:42:27.439Z,0.20
2022-11-03T12:44:55.807Z,0.20
2022-11-03T12:47:23.283Z,0.20
2022-11-03T12:49:50.747Z,0.25
2022-11-03T12:52:19.586Z,0.20
2022-11-03T12:54:47.067Z,0.20
2022-11-03T12:57:14.777Z,0.20
2022-11-03T12:59:42.231Z,0.20
2022-11-03T13:02:10.912Z,0.30
2022-11-03T13:04:39.048Z,0.20
2022-11-03T13:07:34.740Z,0.20
2022-11-03T13:10:04.789Z,0.20
2022-11-03T13:12:32.265Z,0.20
2022-11-03T13:14:59.920Z,0.30
2022-11-03T13:17:35.765Z,0.20
2022-11-03T13:20:15.947Z,0.30
2022-11-03T13:22:43.415Z,0.20
2022-11-03T13:25:12.270Z,0.30
2022-11-03T13:27:39.861Z,0.20
2022-11-03T13:30:08.039Z,0.20
2022-11-03T13:32:35.621Z,0.20
2022-11-03T13:35:03.073Z,0.30
2022-11-03T13:37:30.509Z,0.20
2022-11-03T13:39:57.941Z,0.20
2022-11-03T13:42:26.738Z,0.20
2022-11-03T13:44:54.229Z,0.22
2022-11-03T13:47:38.832Z,0.20
2022-11-03T13:50:17.606Z,0.30
2022-11-03T13:52:45.553Z,0.20
2022-11-03T14:00:49.581Z,0.30
2022-11-03T14:06:04.553Z,0.30
2022-11-03T14:08:32.110Z,0.20
2022-11-03T14:10:59.570Z,0.20
2022-11-03T14:13:27.779Z,0.30
2022-11-03T14:15:56.516Z,0.20
2022-11-03T14:18:24.007Z,0.28
2022-11-03T14:20:51.429Z,0.30
2022-11-03T14:23:18.847Z,0.20
2022-11-03T14:25:52.236Z,0.20
2022-11-03T14:28:29.414Z,0.20
2022-11-03T14:30:59.663Z,0.20
2022-11-03T14:33:27.230Z,0.20
2022-11-03T14:35:54.693Z,0.20
2022-11-03T14:38:22.176Z,0.30
2022-11-03T14:41:07.069Z,0.30
2022-11-03T14:43:35.851Z,0.28
2022-11-03T14:46:03.444Z,0.30
2022-11-03T14:48:30.969Z,0.28
2022-11-03T14:50:58.429Z,0.20
2022-11-03T14:53:26.000Z,0.30
2022-11-03T14:55:53.421Z,0.20
2022-11-03T14:58:20.850Z,0.30
2022-11-03T15:00:49.729Z,0.30
2022-11-03T15:03:17.239Z,0.30
2022-11-03T15:05:47.546Z,0.20
2022-11-03T15:08:16.222Z,0.30
2022-11-03T15:10:44.010Z,0.30
2022-11-03T15:13:11.714Z,0.30
2022-11-03T15:15:40.931Z,0.38
2022-11-03T15:18:10.030Z,0.30
2022-11-03T15:20:37.577Z,0.30
2022-11-03T15:25:52.546Z,0.30
2022-11-03T15:28:20.983Z,0.35
2022-11-03T15:30:48.465Z,0.30
2022-11-03T15:33:17.396Z,0.30
2022-11-03T15:35:45.170Z,0.30
2022-11-03T15:38:12.855Z,0.30
2022-11-03T15:40:40.607Z,0.40
2022-11-03T15:43:08.135Z,0.20
2022-11-03T15:45:35.579Z,0.20
2022-11-03T15:48:03.236Z,0.30
2022-11-03T15:50:32.100Z,0.38
2022-11-03T15:53:02.368Z,0.30
2022-11-03T15:55:29.800Z,0.30
2022-11-03T15:57:57.303Z,0.40
2022-11-03T16:00:24.752Z,0.28
2022-11-03T16:02:52.386Z,0.22
2022-11-03T16:05:25.007Z,0.30
2022-11-03T16:07:55.205Z,0.30
2022-11-03T16:10:22.705Z,0.30
2022-11-03T16:12:50.113Z,0.30
2022-11-03T16:15:17.559Z,0.30
2022-11-03T16:17:45.844Z,0.40
2022-11-03T16:20:13.429Z,0.30
2022-11-03T16:22:40.947Z,0.40
2022-11-03T16:25:12.912Z,0.40
2022-11-03T16:27:42.489Z,0.30
2022-11-03T16:30:11.506Z,0.30
2022-11-03T16:32:38.986Z,0.30
2022-11-03T16:35:07.088Z,0.30
2022-11-03T16:37:34.632Z,0.30
2022-11-03T16:40:02.214Z,0.30
2022-11-03T16:42:38.014Z,0.30
2022-11-03T16:45:06.803Z,0.35
2022-11-03T16:47:34.238Z,0.30
2022-11-03T16:50:01.671Z,0.40
2022-11-03T16:52:29.099Z,0.30
2022-11-03T16:54:56.508Z,0.30
2022-11-03T16:57:23.947Z,0.30
2022-11-03T16:59:52.722Z,0.30
2022-11-03T17:02:20.511Z,0.30
2022-11-03T17:04:48.021Z,0.30
2022-11-03T17:07:15.433Z,0.30
2022-11-03T17:09:42.876Z,0.30
2022-11-03T17:12:10.401Z,0.30
2022-11-03T17:14:37.828Z,0.20
2022-11-03T17:17:06.685Z,0.22
2022-11-03T17:19:34.150Z,0.32
2022-11-03T17:22:01.942Z,0.20
2022-11-03T17:24:29.466Z,0.30
2022-11-03T17:26:58.248Z,0.30
2022-11-03T17:29:30.628Z,0.30
2022-11-03T17:31:58.096Z,0.38
2022-11-03T17:34:26.955Z,0.30
2022-11-03T17:36:54.647Z,0.30
2022-11-03T17:41:54.707Z,0.40
2022-11-03T17:44:22.163Z,0.30
2022-11-03T17:46:49.582Z,0.30
2022-11-03T17:49:17.050Z,0.40
2022-11-03T17:51:46.392Z,0.30
2022-11-03T17:54:15.854Z,0.30
2022-11-03T17:56:43.528Z,0.30
2022-11-03T17:59:14.497Z,0.30
2022-11-03T18:01:42.246Z,0.32
2022-11-03T18:04:12.323Z,0.30
2022-11-03T18:06:39.985Z,0.30
2022-11-03T18:09:08.852Z,0.40
2022-11-03T18:11:55.546Z,0.30
2022-11-03T18:14:23.211Z,0.30
2022-11-03T18:16:52.063Z,0.38
2022-11-03T18:19:20.269Z,0.40
2022-11-03T18:21:48.109Z,0.30
2022-11-03T18:24:17.721Z,0.30
2022-11-03T18:26:45.248Z,0.20
2022-11-03T18:29:12.717Z,0.30
2022-11-03T18:31:42.125Z,0.32
2022-11-03T18:34:13.876Z,0.30
2022-11-03T18:36:41.384Z,0.28
2022-11-03T18:39:12.032Z,0.20
2022-11-03T18:41:41.041Z,0.30
2022-11-03T18:44:14.073Z,0.30
2022-11-03T18:46:41.607Z,0.30
2022-11-03T18:49:09.032Z,0.22
2022-11-03T18:51:36.582Z,0.40
2022-11-03T18:54:04.346Z,0.30
2022-11-03T18:56:34.273Z,0.30
2022-11-03T18:59:07.231Z,0.30
2022-11-03T19:01:35.066Z,0.30
2022-11-03T19:04:02.704Z,0.22
2022-11-03T19:06:30.205Z,0.30
2022-11-03T19:08:59.400Z,0.35
2022-11-03T19:11:27.505Z,0.22
2022-11-03T19:13:55.190Z,0.30
2022-11-03T19:16:24.770Z,0.30
2022-11-03T19:18:52.762Z,0.32
2022-11-03T19:21:21.680Z,0.32
2022-11-03T19:23:51.822Z,0.30
2022-11-03T19:26:22.891Z,0.20
2022-11-03T19:28:51.902Z,0.40
2022-11-03T19:31:22.066Z,0.30
2022-11-03T19:33:51.582Z,0.30
2022-11-03T19:36:19.808Z,0.30
2022-11-03T19:38:47.277Z,0.30
2022-11-03T19:41:32.819Z,0.30
2022-11-03T19:44:00.809Z,0.28
2022-11-03T19:46:28.653Z,0.30
2022-11-03T19:48:57.918Z,0.38
2022-11-03T19:51:25.838Z,0.30
2022-11-03T19:53:53.450Z,0.22
2022-11-03T19:56:21.202Z,0.35
2022-11-03T19:58:48.672Z,0.40
2022-11-03T20:01:16.211Z,0.30
2022-11-03T20:03:43.801Z,0.30
2022-11-03T20:06:18.100Z,0.30
2022-11-03T20:08:47.290Z,0.30
2022-11-03T20:11:14.797Z,0.30
2022-11-03T20:13:43.294Z,0.30
2022-11-03T20:16:14.701Z,0.30
2022-11-03T20:18:43.260Z,0.30
2022-11-03T20:21:15.409Z,0.40
2022-11-03T20:23:43.077Z,0.38
2022-11-03T20:26:13.569Z,0.30
2022-11-03T20:28:41.010Z,0.40
2022-11-03T20:31:08.720Z,0.20
2022-11-03T20:33:36.618Z,0.22
2022-11-03T20:36:04.556Z,0.25
2022-11-03T20:38:34.069Z,0.35
2022-11-03T20:41:03.578Z,0.30
2022-11-03T20:43:31.967Z,0.30
2022-11-03T20:46:00.064Z,0.30
2022-11-03T20:48:27.950Z,0.30
2022-11-03T20:50:56.005Z,0.30
2022-11-03T20:53:24.684Z,0.30
2022-11-03T20:55:53.924Z,0.40
2022-11-03T20:58:21.711Z,0.40
2022-11-03T21:00:49.861Z,0.30
2022-11-03T21:03:38.144Z,0.35
2022-11-03T21:06:06.394Z,0.30
2022-11-03T21:08:33.868Z,0.30
2022-11-03T21:11:23.142Z,0.38
2022-11-03T21:13:50.799Z,0.30
2022-11-03T21:16:35.948Z,0.30
2022-11-03T21:19:21.248Z,0.30
2022-11-03T21:21:48.720Z,0.28
2022-11-03T21:24:16.218Z,0.30
2022-11-03T21:26:45.028Z,0.40
2022-11-03T21:29:12.477Z,0.30
2022-11-03T21:31:41.101Z,0.40
2022-11-03T21:34:08.593Z,0.30
2022-11-03T21:36:37.077Z,0.30
2022-11-03T21:39:05.180Z,0.30
2022-11-03T21:41:50.125Z,0.32
2022-11-03T21:44:19.026Z,0.25
2022-11-03T21:46:47.633Z,0.40
2022-11-03T21:49:32.461Z,0.30
2022-11-03T21:52:00.434Z,0.38
2022-11-03T21:54:53.445Z,0.40
2022-11-03T21:57:20.909Z,0.30
2022-11-03T21:59:49.697Z,0.30
2022-11-03T22:02:17.191Z,0.30
2022-11-03T22:04:45.406Z,0.30
2022-11-03T22:07:12.898Z,0.30
2022-11-03T22:09:40.363Z,0.40
2022-11-03T22:12:10.096Z,0.40
2022-11-03T22:14:51.438Z,0.30
2022-11-03T22:17:20.279Z,0.35
2022-11-03T22:20:05.515Z,0.30
2022-11-03T22:22:50.671Z,0.40
2022-11-03T22:25:35.577Z,0.30
2022-11-03T22:28:03.304Z,0.30
2022-11-03T22:30:48.487Z,0.40
2022-11-03T22:33:17.281Z,0.30
2022-11-03T22:36:02.435Z,0.30
2022-11-03T22:38:46.048Z,0.30
2022-11-03T22:41:39.508Z,0.30
2022-11-03T22:44:24.937Z,0.35
2022-11-03T22:46:52.485Z,0.30
2022-11-03T22:49:21.325Z,0.40
2022-11-03T22:51:51.462Z,0.30
2022-11-03T22:54:18.917Z,0.25
2022-11-03T22:56:46.426Z,0.30
2022-11-03T22:59:13.885Z,0.22
2022-11-03T23:01:41.569Z,0.30
2022-11-03T23:04:09.202Z,0.30
2022-11-03T23:06:40.402Z,0.32
2022-11-03T23:09:08.558Z,0.30
2022-11-03T23:11:36.146Z,0.30
2022-11-03T23:14:04.645Z,0.30
2022-11-03T23:16:33.178Z,0.30
2022-11-03T23:19:18.629Z,0.30
2022-11-03T23:21:48.289Z,0.30
2022-11-03T23:24:33.507Z,0.30
2022-11-03T23:27:01.070Z,0.20
2022-11-03T23:29:28.872Z,0.30
2022-11-03T23:31:57.116Z,0.30
2022-11-03T23:34:24.559Z,0.30
2022-11-03T23:36:53.526Z,0.20
2022-11-03T23:39:21.856Z,0.20
2022-11-03T23:41:50.279Z,0.30
2022-11-03T23:44:18.171Z,0.30
2022-11-03T23:47:03.762Z,0.30
2022-11-03T23:49:31.337Z,0.40
2022-11-03T23:52:00.550Z,0.30
2022-11-03T23:54:28.236Z,0.30
2022-11-03T23:57:13.475Z,0.40
2022-11-03T23:59:41.155Z,0.25
